createdAt,value
2018-12-08T00:00:27.997Z,97647.00
2018-12-08T00:03:02.451Z,97586.13
2018-12-08T00:05:37.483Z,97665.08
2018-12-08T00:08:14.344Z,97665.63
2018-12-08T00:10:48.579Z,97668.34
2018-12-08T00:13:36.383Z,97677.01
2018-12-08T00:16:10.904Z,97677.37
2018-12-08T00:18:46.914Z,97689.84
2018-12-08T00:21:21.738Z,97685.36
2018-12-08T00:23:57.294Z,97707.23
2018-12-08T00:26:28.579Z,97715.98
2018-12-08T00:29:12.538Z,97711.97
2018-12-08T00:31:54.210Z,97719.78
2018-12-08T00:34:28.188Z,97725.81
2018-12-08T00:37:03.726Z,97734.08
2018-12-08T00:39:38.576Z,97732.85
2018-12-08T00:42:10.120Z,97746.39
2018-12-08T00:44:44.239Z,97743.91
2018-12-08T00:47:18.990Z,97742.77
2018-12-08T00:49:51.217Z,97626.48
2018-12-08T00:52:22.369Z,97736.09
2018-12-08T00:54:54.953Z,97739.44
2018-12-08T00:57:29.224Z,97734.97
2018-12-08T01:00:03.291Z,97760.09
2018-12-08T01:02:37.170Z,97755.63
2018-12-08T01:05:10.278Z,97763.89
2018-12-08T01:07:41.910Z,97763.39
2018-12-08T01:10:17.911Z,97768.77
2018-12-08T01:12:52.706Z,97780.03
2018-12-08T01:15:28.758Z,97780.88
2018-12-08T01:18:01.517Z,97780.59
2018-12-08T01:20:37.403Z,97783.77
2018-12-08T01:23:11.515Z,97785.34
2018-12-08T01:25:47.783Z,97791.54
2018-12-08T01:28:24.351Z,97787.16
2018-12-08T01:31:00.721Z,97752.34
2018-12-08T01:33:32.298Z,97797.91
2018-12-08T01:36:07.120Z,97799.56
2018-12-08T01:38:43.162Z,97788.22
2018-12-08T01:41:17.782Z,97786.64
2018-12-08T01:43:52.047Z,97776.34
2018-12-08T01:46:24.654Z,97776.22
2018-12-08T01:48:57.445Z,97785.94
2018-12-08T01:51:31.652Z,97779.48
2018-12-08T01:54:04.556Z,97785.40
2018-12-08T01:56:38.750Z,97787.45
2018-12-08T01:59:12.815Z,97782.18
2018-12-08T02:01:45.683Z,97783.39
2018-12-08T02:04:22.164Z,97781.66
2018-12-08T02:06:56.688Z,97789.64
2018-12-08T02:09:31.069Z,97792.64
2018-12-08T02:12:05.942Z,97792.67
2018-12-08T02:14:39.127Z,97795.52
2018-12-08T02:17:12.322Z,97804.30
2018-12-08T02:19:44.894Z,97800.95
2018-12-08T02:22:16.791Z,97795.83
2018-12-08T02:24:51.665Z,97800.03
2018-12-08T02:27:25.940Z,97798.34
2018-12-08T02:30:00.749Z,97795.14
2018-12-08T02:32:36.261Z,97796.02
2018-12-08T02:35:10.781Z,97793.65
2018-12-08T02:37:43.624Z,97797.09
2018-12-08T02:40:16.270Z,97801.20
2018-12-08T02:42:49.297Z,97799.59
2018-12-08T02:45:24.160Z,97798.39
2018-12-08T02:47:58.098Z,97803.73
2018-12-08T02:50:34.030Z,97802.30
2018-12-08T02:53:06.900Z,97814.20
2018-12-08T02:55:41.218Z,97812.27
2018-12-08T02:58:16.049Z,97813.72
2018-12-08T03:00:50.118Z,97811.56
2018-12-08T03:03:23.273Z,97805.77
2018-12-08T03:05:57.363Z,97805.06
2018-12-08T03:08:32.007Z,97803.30
2018-12-08T03:11:08.007Z,97805.21
2018-12-08T03:13:41.890Z,97801.86
2018-12-08T03:16:17.230Z,97807.92
2018-12-08T03:18:51.627Z,97817.12
2018-12-08T03:21:25.643Z,97817.79
2018-12-08T03:24:01.913Z,97808.88
2018-12-08T03:26:36.637Z,97813.72
2018-12-08T03:29:19.025Z,97810.58
2018-12-08T03:31:53.783Z,97824.95
2018-12-08T03:34:28.614Z,97826.77
2018-12-08T03:37:04.449Z,97832.50
2018-12-08T03:39:38.628Z,97826.31
2018-12-08T03:42:11.330Z,97818.61
2018-12-08T03:44:45.295Z,97813.63
2018-12-08T03:47:21.460Z,97808.13
2018-12-08T03:49:52.404Z,97801.03
2018-12-08T03:52:34.742Z,97801.18
2018-12-08T03:55:10.108Z,97805.98
2018-12-08T03:57:44.648Z,97810.69
2018-12-08T04:00:15.618Z,97814.73
2018-12-08T04:02:49.989Z,97803.23
2018-12-08T04:05:27.815Z,97799.63
2018-12-08T04:08:02.467Z,97800.94
2018-12-08T04:13:34.080Z,97803.73
2018-12-08T04:16:06.793Z,97805.25
2018-12-08T04:18:40.777Z,97805.48
2018-12-08T04:21:14.980Z,97799.84
2018-12-08T04:23:47.499Z,97800.98
2018-12-08T04:26:21.581Z,97802.42
2018-12-08T04:28:52.786Z,97811.42
2018-12-08T04:31:37.392Z,97804.80
2018-12-08T04:34:11.748Z,97793.04
2018-12-08T04:36:42.613Z,97790.75
2018-12-08T04:39:25.756Z,97789.00
2018-12-08T04:41:56.606Z,97788.91
2018-12-08T04:44:28.704Z,97786.77
2018-12-08T04:47:03.590Z,97784.11
2018-12-08T04:49:38.598Z,97787.70
2018-12-08T04:52:13.051Z,97783.95
2018-12-08T04:54:43.779Z,97783.95
2018-12-08T04:57:22.438Z,97784.77
2018-12-08T04:59:58.355Z,97791.26
2018-12-08T05:02:29.193Z,97788.50
2018-12-08T05:05:00.267Z,97785.30
2018-12-08T05:07:31.591Z,97786.30
2018-12-08T05:10:08.120Z,97785.75
2018-12-08T05:12:42.249Z,97781.80
2018-12-08T05:15:13.111Z,97773.87
2018-12-08T05:17:47.843Z,97777.13
2018-12-08T05:20:19.070Z,97779.36
2018-12-08T05:23:05.252Z,97784.10
2018-12-08T05:25:53.976Z,97784.70
2018-12-08T05:28:25.786Z,97800.58
2018-12-08T05:33:57.107Z,97806.77
2018-12-08T05:36:29.658Z,97805.78
2018-12-08T05:39:07.155Z,97798.84
2018-12-08T05:44:34.618Z,97789.66
2018-12-08T05:47:10.878Z,97797.15
2018-12-08T05:52:41.176Z,97817.23
2018-12-08T05:55:22.784Z,97801.50
2018-12-08T05:58:04.582Z,97813.58
2018-12-08T06:00:43.881Z,97821.91
2018-12-08T06:03:19.675Z,97830.16
2018-12-08T06:05:52.304Z,97831.77
2018-12-08T06:08:28.418Z,97835.41
2018-12-08T06:11:12.035Z,97845.80
2018-12-08T06:13:47.744Z,97852.83
2018-12-08T06:16:20.055Z,97849.08
2018-12-08T06:18:55.881Z,97845.94
2018-12-08T06:21:37.677Z,97850.03
2018-12-08T06:24:11.603Z,97857.29
2018-12-08T06:28:07.740Z,97852.05
2018-12-08T06:30:46.563Z,97851.56
2018-12-08T06:33:20.836Z,97853.80
2018-12-08T06:35:51.885Z,97850.89
2018-12-08T06:38:29.043Z,97855.30
2018-12-08T06:41:03.872Z,97844.16
2018-12-08T06:43:37.863Z,97833.22
2018-12-08T06:46:12.445Z,97836.91
2018-12-08T06:48:47.445Z,97841.40
2018-12-08T06:51:18.859Z,97847.80
2018-12-08T06:53:53.699Z,97842.25
2018-12-08T06:56:25.603Z,97840.16
2018-12-08T06:59:01.916Z,97831.77
2018-12-08T07:01:38.899Z,97833.16
2018-12-08T07:04:10.682Z,97827.33
2018-12-08T07:06:43.989Z,97833.67
2018-12-08T07:09:18.004Z,97829.02
2018-12-08T07:11:53.475Z,97830.46
2018-12-08T07:14:41.603Z,97827.41
2018-12-08T07:17:19.745Z,97830.46
2018-12-08T07:19:54.418Z,97821.37
2018-12-08T07:22:29.869Z,97828.87
2018-12-08T07:25:23.594Z,97773.63
2018-12-08T07:28:00.537Z,97830.63
2018-12-08T07:30:36.040Z,97826.02
2018-12-08T07:33:10.773Z,97829.30
2018-12-08T07:35:41.618Z,97832.71
2018-12-08T07:38:15.736Z,97825.58
2018-12-08T07:40:47.416Z,97830.02
2018-12-08T07:45:52.111Z,97832.05
2018-12-08T07:48:28.832Z,97833.56
2018-12-08T07:51:04.126Z,97824.26
2018-12-08T07:53:40.483Z,97826.45
2018-12-08T07:56:12.471Z,97833.20
2018-12-08T07:58:46.500Z,97821.11
2018-12-08T08:01:27.315Z,97819.90
2018-12-08T08:04:01.996Z,97825.39
2018-12-08T08:06:33.538Z,97816.27
2018-12-08T08:09:09.776Z,97808.02
2018-12-08T08:11:43.784Z,97795.00
2018-12-08T08:14:17.718Z,97787.45
2018-12-08T08:16:52.068Z,97778.81
2018-12-08T08:19:24.100Z,97766.54
2018-12-08T08:30:46.803Z,97783.13
2018-12-08T08:33:17.717Z,97789.53
2018-12-08T08:35:49.228Z,97787.38
2018-12-08T08:38:20.329Z,97797.89
2018-12-08T08:40:51.167Z,97784.84
2018-12-08T08:43:22.321Z,97787.52
2018-12-08T08:45:53.244Z,97790.60
2018-12-08T08:48:24.087Z,97779.14
2018-12-08T08:50:57.402Z,97772.31
2018-12-08T08:53:32.258Z,97773.39
2018-12-08T08:56:04.057Z,97757.91
2018-12-08T08:58:35.074Z,97762.19
2018-12-08T09:01:06.374Z,97769.17
2018-12-08T09:03:37.232Z,97765.88
2018-12-08T09:06:08.292Z,97759.48
2018-12-08T09:08:39.434Z,97766.05
2018-12-08T09:11:10.324Z,97772.68
2018-12-08T09:13:41.124Z,97755.92
2018-12-08T09:16:13.284Z,97767.47
2018-12-08T09:18:44.131Z,97753.36
2018-12-08T09:21:15.799Z,97749.07
2018-12-08T09:23:47.055Z,97754.16
2018-12-08T09:26:17.999Z,97749.59
2018-12-08T09:28:49.538Z,97737.87
2018-12-08T09:31:20.497Z,97747.72
2018-12-08T09:33:52.955Z,97743.06
2018-12-08T09:36:23.895Z,97730.97
2018-12-08T09:38:58.784Z,97744.55
2018-12-08T09:41:30.007Z,97726.54
2018-12-08T09:44:00.920Z,97725.45
2018-12-08T09:46:32.130Z,97717.92
2018-12-08T09:49:03.092Z,97722.67
2018-12-08T09:51:34.166Z,97723.42
2018-12-08T09:54:05.788Z,97728.77
2018-12-08T09:56:36.555Z,97716.00
2018-12-08T09:59:07.597Z,97717.16
2018-12-08T10:01:38.599Z,97736.20
2018-12-08T10:04:09.548Z,97716.97
2018-12-08T10:06:44.363Z,97722.19
2018-12-08T10:09:15.104Z,97731.30
2018-12-08T10:11:45.859Z,97732.50
2018-12-08T10:14:16.696Z,97727.39
2018-12-08T10:16:47.614Z,97728.88
2018-12-08T10:19:21.895Z,97727.22
2018-12-08T10:21:52.776Z,97723.48
2018-12-08T10:24:27.480Z,97723.48
2018-12-08T10:27:04.386Z,97726.86
2018-12-08T10:29:40.956Z,97711.09
2018-12-08T10:32:15.999Z,97714.91
2018-12-08T10:34:51.372Z,97713.63
2018-12-08T10:37:27.887Z,97729.61
2018-12-08T10:40:04.335Z,97729.51
2018-12-08T10:42:35.372Z,97731.63
2018-12-08T10:45:09.480Z,97730.84
2018-12-08T10:50:13.465Z,97725.28
2018-12-08T10:52:50.032Z,97725.13
2018-12-08T10:55:24.196Z,97709.58
2018-12-08T10:57:58.387Z,97715.45
2018-12-08T11:02:39.941Z,97709.81
2018-12-08T11:05:12.466Z,97700.97
2018-12-08T11:07:48.480Z,97702.27
2018-12-08T11:10:26.044Z,97710.35
2018-12-08T11:12:59.780Z,97710.78
2018-12-08T11:15:32.799Z,97719.75
2018-12-08T11:18:10.730Z,97712.78
2018-12-08T11:20:42.142Z,97705.84
2018-12-08T11:23:18.457Z,97709.78
2018-12-08T11:25:53.328Z,97707.53
2018-12-08T11:28:28.427Z,97719.84
2018-12-08T11:31:03.212Z,97712.17
2018-12-08T11:33:35.075Z,97703.95
2018-12-08T11:36:10.284Z,97703.95
2018-12-08T11:38:45.877Z,97710.47
2018-12-08T11:41:20.354Z,97708.80
2018-12-08T11:44:13.891Z,97701.63
2018-12-08T11:46:51.101Z,97690.48
2018-12-08T11:49:26.274Z,97695.98
2018-12-08T11:52:03.720Z,97701.37
2018-12-08T11:54:39.558Z,97705.81
2018-12-08T11:57:15.940Z,97699.86
2018-12-08T11:59:50.929Z,97699.62
2018-12-08T12:02:27.782Z,97689.11
2018-12-08T12:05:03.081Z,97684.83
2018-12-08T12:07:39.572Z,97684.25
2018-12-08T12:10:18.036Z,97695.98
2018-12-08T12:12:53.426Z,97697.47
2018-12-08T12:15:28.958Z,97695.03
2018-12-08T12:18:06.777Z,97687.34
2018-12-08T12:20:41.690Z,97688.52
2018-12-08T12:23:16.508Z,97694.66
2018-12-08T12:25:47.583Z,97688.72
2018-12-08T12:28:21.889Z,97693.09
2018-12-08T12:30:56.268Z,97711.86
2018-12-08T12:33:32.353Z,97704.71
2018-12-08T12:36:15.577Z,97703.41
2018-12-08T12:38:50.556Z,97700.70
2018-12-08T12:41:25.858Z,97695.03
2018-12-08T12:44:17.711Z,97688.41
2018-12-08T12:46:53.045Z,97686.47
2018-12-08T12:49:30.516Z,97677.63
2018-12-08T12:52:10.169Z,97680.20
2018-12-08T12:54:46.960Z,97675.45
2018-12-08T12:57:28.538Z,97672.20
2018-12-08T13:00:08.392Z,97673.97
2018-12-08T13:05:05.540Z,97673.80
2018-12-08T13:07:41.540Z,97671.20
2018-12-08T13:10:17.597Z,97669.59
2018-12-08T13:15:49.523Z,97692.87
2018-12-08T13:18:36.274Z,97678.79
2018-12-08T13:24:02.961Z,97679.35
2018-12-08T13:26:40.223Z,97683.97
2018-12-08T13:29:27.624Z,97672.42
2018-12-08T13:32:05.847Z,97674.19
2018-12-08T13:37:58.206Z,97672.42
2018-12-08T13:40:34.630Z,97661.45
2018-12-08T13:43:09.437Z,97661.52
2018-12-08T13:45:47.022Z,97666.05
2018-12-08T13:48:34.278Z,97667.95
2018-12-08T13:51:11.916Z,97675.87
2018-12-08T13:53:46.963Z,97678.51
2018-12-08T13:56:24.095Z,97672.98
2018-12-08T13:59:00.898Z,97678.16
2018-12-08T14:01:38.092Z,97686.14
2018-12-08T14:04:14.860Z,97689.52
2018-12-08T14:06:51.807Z,97692.47
2018-12-08T14:09:25.001Z,97682.69
2018-12-08T14:12:04.379Z,97681.00
2018-12-08T14:14:39.426Z,97682.80
2018-12-08T14:17:14.357Z,97694.58
2018-12-08T14:19:49.655Z,97695.98
2018-12-08T14:22:27.300Z,97696.22
2018-12-08T14:25:03.014Z,97702.05
2018-12-08T14:27:37.352Z,97699.68
2018-12-08T14:30:16.813Z,97710.36
2018-12-08T14:32:51.961Z,97705.22
2018-12-08T14:35:30.000Z,97702.89
2018-12-08T14:38:06.388Z,97704.36
2018-12-08T14:40:43.875Z,97706.63
2018-12-08T14:43:22.025Z,97703.11
2018-12-08T14:45:54.384Z,97709.91
2018-12-08T14:48:27.052Z,97720.88
2018-12-08T14:51:03.996Z,97713.64
2018-12-08T14:53:40.902Z,97708.16
2018-12-08T14:56:17.491Z,97697.36
2018-12-08T14:58:54.931Z,97709.23
2018-12-08T15:01:30.413Z,97702.55
2018-12-08T15:04:08.423Z,97704.48
2018-12-08T15:06:42.950Z,97709.68
2018-12-08T15:09:18.104Z,97705.96
2018-12-08T15:11:56.053Z,97699.38
2018-12-08T15:14:30.014Z,97700.93
2018-12-08T15:17:04.908Z,97691.47
2018-12-08T15:19:37.327Z,97695.38
2018-12-08T15:22:11.687Z,97682.19
2018-12-08T15:24:53.434Z,97685.36
2018-12-08T15:27:30.304Z,97667.35
2018-12-08T15:30:03.466Z,97663.30
2018-12-08T15:32:38.452Z,97655.70
2018-12-08T15:35:11.893Z,97654.97
2018-12-08T15:37:46.747Z,97653.95
2018-12-08T15:40:19.126Z,97655.81
2018-12-08T15:42:51.443Z,97665.27
2018-12-08T15:45:25.498Z,97656.77
2018-12-08T15:47:59.437Z,97649.13
2018-12-08T15:50:33.594Z,97656.77
2018-12-08T15:53:04.812Z,97655.29
2018-12-08T15:55:41.975Z,97647.48
2018-12-08T15:58:16.457Z,97645.27
2018-12-08T16:00:47.688Z,97653.60
2018-12-08T16:03:22.417Z,97652.80
2018-12-08T16:05:54.372Z,97651.73
2018-12-08T16:08:28.775Z,97654.27
2018-12-08T16:11:02.952Z,97647.94
2018-12-08T16:13:36.927Z,97646.35
2018-12-08T16:16:07.767Z,97652.72
2018-12-08T16:18:38.708Z,97650.36
2018-12-08T16:21:10.090Z,97641.78
2018-12-08T16:23:41.563Z,97639.11
2018-12-08T16:26:16.536Z,97639.67
2018-12-08T16:29:01.234Z,97639.21
2018-12-08T16:31:34.450Z,97644.49
2018-12-08T16:34:08.679Z,97635.97
2018-12-08T16:36:40.750Z,97645.19
2018-12-08T16:39:13.515Z,97641.74
2018-12-08T16:41:45.560Z,97630.58
2018-12-08T16:44:19.086Z,97633.36
2018-12-08T16:46:50.876Z,97636.14
2018-12-08T16:49:21.652Z,97630.61
2018-12-08T16:51:53.732Z,97616.28
2018-12-08T16:54:24.543Z,97625.83
2018-12-08T16:56:55.940Z,97615.87
2018-12-08T16:59:27.966Z,97622.11
2018-12-08T17:01:59.109Z,97608.17
2018-12-08T17:04:30.625Z,97607.25
2018-12-08T17:07:01.434Z,97590.24
2018-12-08T17:09:32.589Z,97586.31
2018-12-08T17:12:03.643Z,97588.66
2018-12-08T17:14:34.433Z,97587.71
2018-12-08T17:17:05.798Z,97586.59
2018-12-08T17:19:38.135Z,97585.02
2018-12-08T17:22:09.117Z,97590.24
2018-12-08T17:24:40.880Z,97583.17
2018-12-08T17:27:12.459Z,97568.86
2018-12-08T17:29:43.264Z,97554.53
2018-12-08T17:32:15.564Z,97558.80
2018-12-08T17:34:46.560Z,97564.00
2018-12-08T17:37:17.411Z,97555.66
2018-12-08T17:39:56.429Z,97549.67
2018-12-08T17:42:31.704Z,97546.63
2018-12-08T17:45:08.171Z,97541.22
2018-12-08T17:47:42.276Z,97537.52
2018-12-08T17:50:13.384Z,97519.55
2018-12-08T17:52:46.018Z,97519.09
2018-12-08T17:55:17.947Z,97511.18
2018-12-08T17:57:55.770Z,97515.81
2018-12-08T18:00:35.439Z,97508.56
2018-12-08T18:03:08.277Z,97502.70
2018-12-08T18:05:42.280Z,97499.64
2018-12-08T18:08:19.558Z,97483.09
2018-12-08T18:11:07.549Z,97473.97
2018-12-08T18:18:58.091Z,97484.39
2018-12-08T18:21:41.588Z,97466.08
2018-12-08T18:24:18.146Z,97463.20
2018-12-08T18:26:54.049Z,97466.53
2018-12-08T18:29:28.040Z,97464.30
2018-12-08T18:32:23.973Z,97458.92
2018-12-08T18:34:54.863Z,97445.71
2018-12-08T18:37:32.716Z,97436.79
2018-12-08T18:40:03.698Z,97427.66
2018-12-08T18:42:34.888Z,97425.82
2018-12-08T18:45:06.028Z,97412.96
2018-12-08T18:47:54.746Z,97410.20
2018-12-08T18:50:26.717Z,97409.81
2018-12-08T18:53:03.626Z,97415.95
2018-12-08T18:55:38.352Z,97419.13
2018-12-08T18:58:17.505Z,97417.33
2018-12-08T19:01:02.716Z,97416.33
2018-12-08T19:06:32.524Z,97365.13
2018-12-08T19:09:09.225Z,97359.19
2018-12-08T19:11:41.381Z,97374.62
2018-12-08T19:14:15.082Z,97371.58
2018-12-08T19:16:49.853Z,97359.86
2018-12-08T19:19:24.111Z,97355.30
2018-12-08T19:27:01.180Z,97354.06
2018-12-08T19:29:35.228Z,97339.84
2018-12-08T19:32:18.606Z,97335.82
2018-12-08T19:34:49.392Z,97326.32
2018-12-08T19:37:23.664Z,97309.30
2018-12-08T19:39:55.180Z,97325.58
2018-12-08T19:42:28.179Z,97319.80
2018-12-08T19:44:59.528Z,97324.27
2018-12-08T19:47:30.393Z,97317.78
2018-12-08T19:50:02.609Z,97320.77
2018-12-08T19:52:33.930Z,97314.39
2018-12-08T19:55:04.698Z,97320.65
2018-12-08T19:57:35.519Z,97308.86
2018-12-08T20:00:09.456Z,97316.34
2018-12-08T20:02:41.241Z,97304.91
2018-12-08T20:05:12.275Z,97289.72
2018-12-08T20:07:43.863Z,97288.73
2018-12-08T20:10:14.721Z,97285.47
2018-12-08T20:12:45.514Z,97288.07
2018-12-08T20:15:16.375Z,97284.91
2018-12-08T20:17:47.141Z,97268.30
2018-12-08T20:20:17.939Z,97268.38
2018-12-08T20:22:50.231Z,97253.19
2018-12-08T20:25:21.815Z,97254.69
2018-12-08T20:30:36.432Z,97259.77
2018-12-08T20:33:12.806Z,97255.48
2018-12-08T20:35:44.408Z,97242.20
2018-12-08T20:38:18.118Z,97236.06
2018-12-08T20:40:48.956Z,97237.66
2018-12-08T20:43:19.700Z,97234.59
2018-12-08T20:45:50.610Z,97227.75
2018-12-08T20:48:21.823Z,97218.44
2018-12-08T20:50:52.968Z,97222.72
2018-12-08T20:53:23.935Z,97220.12
2018-12-08T20:55:54.930Z,97215.11
2018-12-08T20:58:25.812Z,97208.22
2018-12-08T21:00:56.659Z,97201.25
2018-12-08T21:03:27.796Z,97189.81
2018-12-08T21:06:03.504Z,97187.06
2018-12-08T21:08:34.961Z,97193.00
2018-12-08T21:11:06.539Z,97181.02
2018-12-08T21:13:37.870Z,97171.07
2018-12-08T21:16:08.758Z,97160.86
2018-12-08T21:18:40.882Z,97148.56
2018-12-08T21:21:12.122Z,97144.44
2018-12-08T21:23:44.069Z,97137.31
2018-12-08T21:26:17.573Z,97132.75
2018-12-08T21:28:52.623Z,97130.08
2018-12-08T21:31:41.045Z,97128.26
2018-12-08T21:37:22.608Z,97119.11
2018-12-08T21:42:50.088Z,97112.70
2018-12-08T21:45:22.805Z,97107.53
2018-12-08T21:56:43.364Z,97083.42
2018-12-08T21:59:21.184Z,97074.77
2018-12-08T22:01:52.901Z,97068.88
2018-12-08T22:04:30.662Z,97063.38
2018-12-08T22:07:01.820Z,97060.93
2018-12-08T22:09:42.252Z,97040.56
2018-12-08T22:12:18.954Z,97017.75
2018-12-08T22:14:55.775Z,96998.17
2018-12-08T22:17:28.493Z,96993.50
2018-12-08T22:20:02.395Z,96989.48
2018-12-08T22:22:38.709Z,96991.08
2018-12-08T22:25:13.625Z,96997.34
2018-12-08T22:27:44.962Z,97000.94
2018-12-08T22:30:15.899Z,96975.89
2018-12-08T22:32:51.811Z,96968.07
2018-12-08T22:35:22.982Z,96970.80
2018-12-08T22:40:57.341Z,96946.73
2018-12-08T22:43:32.185Z,96935.38
2018-12-08T22:46:03.020Z,96926.32
2018-12-08T22:48:34.081Z,96927.55
2018-12-08T22:51:06.653Z,96928.94
2018-12-08T22:53:37.750Z,96921.40
2018-12-08T22:56:08.651Z,96906.34
2018-12-08T22:58:39.377Z,96894.20
2018-12-08T23:01:10.252Z,96883.06
2018-12-08T23:03:52.786Z,96883.57
2018-12-08T23:09:42.777Z,96872.52
2018-12-08T23:12:17.596Z,96872.09
2018-12-08T23:14:52.319Z,96872.28
2018-12-08T23:17:35.914Z,96861.88
2018-12-08T23:20:19.103Z,96846.13
2018-12-08T23:22:49.984Z,96842.23
2018-12-08T23:25:20.886Z,96828.59
2018-12-08T23:27:51.643Z,96811.88
2018-12-08T23:30:22.576Z,96798.69
2018-12-08T23:32:53.428Z,96805.72
2018-12-08T23:35:24.444Z,96807.12
2018-12-08T23:37:56.288Z,96806.74
2018-12-08T23:40:27.193Z,96811.27
2018-12-08T23:42:58.159Z,96806.18
2018-12-08T23:45:29.015Z,96802.41
2018-12-08T23:47:59.803Z,96797.20
2018-12-08T23:50:30.851Z,96787.83
2018-12-08T23:53:04.287Z,96798.27
2018-12-08T23:55:36.939Z,96782.70
2018-12-08T23:58:08.321Z,96790.66
